Weather at Sterparone Airfield [CLOSED]

Public forecast

Using degrees Celsius for public forecast. Weather courtesy of forecast.io.

Closest aviation weather report (METAR) to Sterparone Airfield

Closest report is Foggia "Gino Lisa" Airport, 14.4 nm (26.7 km) SE.

2024/06/16 14:50 (retrieved 1 hour ago)

LIBF 161450Z 26012KT CAVOK 34/10 Q1009

Closest aviation forecast (TAF) to Sterparone Airfield

Closest forecast is Foggia "Gino Lisa" Airport, 14.4 nm (26.7 km) SE.

2024/06/16 12:00 (retrieved 4 hours ago)

TAF LIBF 161100Z 1612/1712 22012KT CAVOK BECMG 1622/1624 28007KT BECMG 1709/1711 22012KT